Aérodrome :
LOGIN :

S'inscrire | Disclaimer

   EN    FR    IT 

 










Légende :    VFR   VFR Marginal   IFR   IFR Intensif   IFR Très Intensif
Visi : 
Plafond : 
>= 8 km
>= 3000ft
5 à 8 km
1000 à 3000 ft
1500m à 5 km
500 à 1000 ft
800 à 1500m
200 à 500 ft
< 800m
< 200 ft
Symboles :   Orages  Brouillard  Fortes neiges  Fortes précipitations  Vent > 20 kt
SIGMETs :   Divers  Orages  Givrage  Turbulence  Onde Orograph.  Cendres Volcan.






- Altitude de l'aérodrome : 407 ft


EGDM - MoD Boscombe Down Amesbury

DERNIER METAR :
  • 261650Z 28013KT 9999 FEW030 SCT250 06/00 Q1008 NOSIG RMK BLU BLU

METARs EXPIRÉS :
  • 261622Z 28013KT 9999 FEW032 06/M00 Q1008 NOSIG RMK BLU BLU
  • 261550Z 29016KT 9999 FEW033 07/00 Q1008 NOSIG RMK BLU BLU
  • 261520Z 30015KT 9999 SCT033 06/M01 Q1008 NOSIG RMK BLU BLU
  • 261450Z 30014KT 9999 FEW033 07/01 Q1007 NOSIG RMK BLU BLU
  • 261428Z 31016KT 9999 SCT030 SCT250 06/01 Q1007 RESHGS NOSIG RMK BLU BLU

TAF TAF EGDM
Valide du 26 à 15h jusqu'au 26 à 19h UTC


261341Z 2615/2619 30015KT 9999 FEW030
BECMG 2616/2619 24007KT



MET'MAP, la Météo Aéronautique d'un coup d'oeil ! - Copyright ORBIFLY Décembre 2007 - Disclaimer

ORBIFLY MET'MAP TEAM :

Programmation & Développement : Alexandra Zaïnal
Sur une idée originale de : Baudouin d'Aumeries
Assistance à la programmation : Marc-Olivier Méhu
Soutien technique & logistique : Manuel Goepfert

Contact : metmap@orbifly.com




SOURCES & CREDITS :

   NOAA